sensor_id;sensor_type;location;lat;lon;timestamp;pressure;altitude;pressure_sealevel;temperature;humidity
69879;BME280;57161;43.136;24.706;2023-02-22T00:00:49;99092.03;;;12.95;42.06
69879;BME280;57161;43.136;24.706;2023-02-22T00:03:16;99092.44;;;12.91;42.34
69879;BME280;57161;43.136;24.706;2023-02-22T00:05:43;99092.22;;;12.97;42.08
69879;BME280;57161;43.136;24.706;2023-02-22T00:08:12;99082.31;;;12.96;41.94
69879;BME280;57161;43.136;24.706;2023-02-22T00:10:38;99056.34;;;12.80;41.96
69879;BME280;57161;43.136;24.706;2023-02-22T00:13:06;99079.13;;;13.00;41.75
69879;BME280;57161;43.136;24.706;2023-02-22T00:15:35;99019.97;;;12.57;41.68
69879;BME280;57161;43.136;24.706;2023-02-22T00:18:02;99085.13;;;12.96;41.59
69879;BME280;57161;43.136;24.706;2023-02-22T00:20:29;99087.19;;;12.96;41.73
69879;BME280;57161;43.136;24.706;2023-02-22T00:22:54;99087.34;;;13.05;41.43
69879;BME280;57161;43.136;24.706;2023-02-22T00:25:22;99033.22;;;12.65;41.44
69879;BME280;57161;43.136;24.706;2023-02-22T00:27:49;99059.75;;;12.71;41.44
69879;BME280;57161;43.136;24.706;2023-02-22T00:30:24;99095.97;;;12.92;41.67
69879;BME280;57161;43.136;24.706;2023-02-22T00:32:51;99069.28;;;12.76;41.66
69879;BME280;57161;43.136;24.706;2023-02-22T00:35:20;99089.06;;;12.85;41.73
69879;BME280;57161;43.136;24.706;2023-02-22T00:37:48;99092.81;;;12.88;41.61
69879;BME280;57161;43.136;24.706;2023-02-22T00:40:18;99089.81;;;12.86;41.47
69879;BME280;57161;43.136;24.706;2023-02-22T00:42:44;99092.06;;;12.87;41.42
69879;BME280;57161;43.136;24.706;2023-02-22T00:45:11;99091.69;;;12.91;41.39
69879;BME280;57161;43.136;24.706;2023-02-22T00:47:37;99087.78;;;12.86;41.34
69879;BME280;57161;43.136;24.706;2023-02-22T00:50:03;99086.81;;;12.91;41.36
69879;BME280;57161;43.136;24.706;2023-02-22T00:52:29;99067.19;;;12.69;41.53
69879;BME280;57161;43.136;24.706;2023-02-22T00:54:55;99083.81;;;12.82;41.52
69879;BME280;57161;43.136;24.706;2023-02-22T00:57:22;99025.75;;;12.44;41.46
69879;BME280;57161;43.136;24.706;2023-02-22T00:59:49;99061.59;;;12.69;41.44
69879;BME280;57161;43.136;24.706;2023-02-22T01:02:16;99085.88;;;12.81;41.48
69879;BME280;57161;43.136;24.706;2023-02-22T01:04:42;99081.22;;;12.84;41.28
69879;BME280;57161;43.136;24.706;2023-02-22T01:07:08;99068.69;;;12.77;41.44
69879;BME280;57161;43.136;24.706;2023-02-22T01:09:33;99031.16;;;12.57;41.25
69879;BME280;57161;43.136;24.706;2023-02-22T01:12:00;99078.59;;;12.86;41.18
69879;BME280;57161;43.136;24.706;2023-02-22T01:14:27;99035.28;;;12.56;41.22
69879;BME280;57161;43.136;24.706;2023-02-22T01:16:53;99021.09;;;12.39;41.28
69879;BME280;57161;43.136;24.706;2023-02-22T01:19:20;99042.19;;;12.55;41.21
69879;BME280;57161;43.136;24.706;2023-02-22T01:21:46;99082.91;;;12.87;41.22
69879;BME280;57161;43.136;24.706;2023-02-22T01:24:13;99078.44;;;12.76;41.42
69879;BME280;57161;43.136;24.706;2023-02-22T01:26:49;99076.94;;;12.75;41.42
69879;BME280;57161;43.136;24.706;2023-02-22T01:29:17;99076.19;;;12.75;41.56
69879;BME280;57161;43.136;24.706;2023-02-22T01:31:50;99076.19;;;12.75;41.42
69879;BME280;57161;43.136;24.706;2023-02-22T01:34:16;99053.22;;;12.61;41.48
69879;BME280;57161;43.136;24.706;2023-02-22T01:36:42;99050.78;;;12.57;41.41
69879;BME280;57161;43.136;24.706;2023-02-22T01:39:08;99029.13;;;12.43;41.33
69879;BME280;57161;43.136;24.706;2023-02-22T01:41:37;99071.69;;;12.79;41.64
69879;BME280;57161;43.136;24.706;2023-02-22T01:44:29;99069.44;;;12.78;41.43
69879;BME280;57161;43.136;24.706;2023-02-22T01:46:56;99073.03;;;12.71;41.46
69879;BME280;57161;43.136;24.706;2023-02-22T01:49:26;99022.41;;;12.38;41.60
69879;BME280;57161;43.136;24.706;2023-02-22T01:51:55;99045.56;;;12.46;41.51
69879;BME280;57161;43.136;24.706;2023-02-22T01:54:36;98999.81;;;12.21;41.68
69879;BME280;57161;43.136;24.706;2023-02-22T01:57:39;99059.56;;;12.61;41.61
69879;BME280;57161;43.136;24.706;2023-02-22T02:00:03;99027.06;;;12.43;41.62
69879;BME280;57161;43.136;24.706;2023-02-22T02:02:35;99061.59;;;12.69;41.90
69879;BME280;57161;43.136;24.706;2023-02-22T02:05:01;99051.34;;;12.63;41.82
69879;BME280;57161;43.136;24.706;2023-02-22T02:07:33;99042.19;;;12.48;42.02
69879;BME280;57161;43.136;24.706;2023-02-22T02:10:04;99053.22;;;12.61;42.12
69879;BME280;57161;43.136;24.706;2023-02-22T02:12:33;99041.63;;;12.57;42.14
69879;BME280;57161;43.136;24.706;2023-02-22T02:15:31;99074.13;;;12.75;42.33
69879;BME280;57161;43.136;24.706;2023-02-22T02:18:00;99070.56;;;12.82;42.47
69879;BME280;57161;43.136;24.706;2023-02-22T02:31:30;99063.47;;;12.89;42.88
69879;BME280;57161;43.136;24.706;2023-02-22T02:40:10;99065.44;;;13.11;42.55
69879;BME280;57161;43.136;24.706;2023-02-22T02:42:41;99067.13;;;13.14;42.60
69879;BME280;57161;43.136;24.706;2023-02-22T02:45:16;99080.63;;;13.08;42.56
69879;BME280;57161;43.136;24.706;2023-02-22T02:47:54;99081.16;;;13.14;42.38
69879;BME280;57161;43.136;24.706;2023-02-22T02:50:44;99070.50;;;13.13;42.63
69879;BME280;57161;43.136;24.706;2023-02-22T02:53:12;99069.41;;;13.08;42.81
69879;BME280;57161;43.136;24.706;2023-02-22T02:55:41;99046.47;;;12.87;42.93
69879;BME280;57161;43.136;24.706;2023-02-22T02:58:07;99047.53;;;12.99;42.73
69879;BME280;57161;43.136;24.706;2023-02-22T03:00:36;99063.56;;;13.14;42.91
69879;BME280;57161;43.136;24.706;2023-02-22T03:11:45;99041.78;;;12.89;43.28
69879;BME280;57161;43.136;24.706;2023-02-22T03:14:22;99013.91;;;12.84;43.16
69879;BME280;57161;43.136;24.706;2023-02-22T03:16:57;99040.25;;;12.96;43.19
69879;BME280;57161;43.136;24.706;2023-02-22T03:19:27;99085.13;;;13.19;42.97
69879;BME280;57161;43.136;24.706;2023-02-22T03:22:16;99074.97;;;13.16;43.00
69879;BME280;57161;43.136;24.706;2023-02-22T03:25:06;99077.78;;;13.16;43.06
69879;BME280;57161;43.136;24.706;2023-02-22T03:30:35;99083.59;;;13.10;43.24
69879;BME280;57161;43.136;24.706;2023-02-22T03:33:08;99085.66;;;13.10;43.28
69879;BME280;57161;43.136;24.706;2023-02-22T03:35:45;99085.13;;;13.04;43.32
69879;BME280;57161;43.136;24.706;2023-02-22T03:38:15;99090.72;;;12.96;43.63
69879;BME280;57161;43.136;24.706;2023-02-22T03:40:45;99086.78;;;12.99;43.38
69879;BME280;57161;43.136;24.706;2023-02-22T03:43:17;99088.66;;;13.04;43.41
69879;BME280;57161;43.136;24.706;2023-02-22T03:45:47;99077.09;;;12.92;43.48
69879;BME280;57161;43.136;24.706;2023-02-22T03:51:03;99089.25;;;12.87;43.39
69879;BME280;57161;43.136;24.706;2023-02-22T03:53:31;99089.81;;;12.86;43.66
69879;BME280;57161;43.136;24.706;2023-02-22T03:55:58;99066.28;;;12.66;44.14
69879;BME280;57161;43.136;24.706;2023-02-22T03:58:29;99078.97;;;12.67;44.31
69879;BME280;57161;43.136;24.706;2023-02-22T04:00:56;99081.78;;;12.59;44.44
69879;BME280;57161;43.136;24.706;2023-02-22T04:03:22;99041.47;;;12.24;44.52
69879;BME280;57161;43.136;24.706;2023-02-22T04:05:48;99076.94;;;12.52;44.99
69879;BME280;57161;43.136;24.706;2023-02-22T04:08:14;99080.13;;;12.41;45.14
69879;BME280;57161;43.136;24.706;2023-02-22T04:10:40;99074.50;;;12.26;45.31
69879;BME280;57161;43.136;24.706;2023-02-22T04:13:06;99043.09;;;11.97;45.39
69879;BME280;57161;43.136;24.706;2023-02-22T04:15:32;99074.47;;;12.11;45.71
69879;BME280;57161;43.136;24.706;2023-02-22T04:17:58;99092.41;;;12.08;46.04
69879;BME280;57161;43.136;24.706;2023-02-22T04:20:24;99061.94;;;11.96;46.08
69879;BME280;57161;43.136;24.706;2023-02-22T04:22:51;99069.97;;;11.92;46.26
69879;BME280;57161;43.136;24.706;2023-02-22T04:25:17;99071.84;;;11.90;46.23
69879;BME280;57161;43.136;24.706;2023-02-22T04:27:43;99077.09;;;12.09;45.80
69879;BME280;57161;43.136;24.706;2023-02-22T04:30:10;99082.69;;;12.16;45.78
69879;BME280;57161;43.136;24.706;2023-02-22T04:32:38;99071.50;;;12.16;45.81
69879;BME280;57161;43.136;24.706;2023-02-22T04:35:05;99078.63;;;12.25;45.63
69879;BME280;57161;43.136;24.706;2023-02-22T04:37:31;99092.06;;;12.34;45.55
69879;BME280;57161;43.136;24.706;2023-02-22T04:40:00;99076.94;;;12.37;45.44
69879;BME280;57161;43.136;24.706;2023-02-22T04:42:26;99071.13;;;12.50;45.13
69879;BME280;57161;43.136;24.706;2023-02-22T04:44:51;99062.56;;;12.48;45.13
69879;BME280;57161;43.136;24.706;2023-02-22T04:47:17;99087.38;;;12.82;44.85
69879;BME280;57161;43.136;24.706;2023-02-22T04:49:42;99080.28;;;12.81;44.95
69879;BME280;57161;43.136;24.706;2023-02-22T04:52:08;99056.94;;;12.63;44.90
69879;BME280;57161;43.136;24.706;2023-02-22T04:54:33;99079.00;;;12.75;44.97
69879;BME280;57161;43.136;24.706;2023-02-22T04:56:59;99042.38;;;12.50;45.11
69879;BME280;57161;43.136;24.706;2023-02-22T04:59:25;99018.09;;;12.45;44.96
69879;BME280;57161;43.136;24.706;2023-02-22T05:01:50;99071.88;;;12.81;44.93
69879;BME280;57161;43.136;24.706;2023-02-22T05:04:16;99092.25;;;12.89;44.86
69879;BME280;57161;43.136;24.706;2023-02-22T05:06:41;99066.25;;;12.81;44.76
69879;BME280;57161;43.136;24.706;2023-02-22T05:09:07;99097.66;;;12.95;44.92
69879;BME280;57161;43.136;24.706;2023-02-22T05:11:32;99087.56;;;12.92;44.85
69879;BME280;57161;43.136;24.706;2023-02-22T05:13:58;99104.75;;;12.96;44.92
69879;BME280;57161;43.136;24.706;2023-02-22T05:16:23;99070.00;;;12.76;44.76
69879;BME280;57161;43.136;24.706;2023-02-22T05:18:49;99105.84;;;13.01;44.73
69879;BME280;57161;43.136;24.706;2023-02-22T05:21:14;99105.13;;;12.92;44.81
69879;BME280;57161;43.136;24.706;2023-02-22T05:23:40;99035.84;;;12.55;44.64
69879;BME280;57161;43.136;24.706;2023-02-22T05:26:06;99108.69;;;12.93;44.93
69879;BME280;57161;43.136;24.706;2023-02-22T05:28:31;99109.97;;;13.00;44.74
69879;BME280;57161;43.136;24.706;2023-02-22T05:30:57;99095.78;;;12.90;44.87
69879;BME280;57161;43.136;24.706;2023-02-22T05:33:22;99080.47;;;12.91;44.94
69879;BME280;57161;43.136;24.706;2023-02-22T05:35:48;99092.81;;;12.88;44.90
69879;BME280;57161;43.136;24.706;2023-02-22T05:38:15;99071.88;;;12.74;45.12
69879;BME280;57161;43.136;24.706;2023-02-22T05:40:41;99106.25;;;12.97;45.20
69879;BME280;57161;43.136;24.706;2023-02-22T05:43:07;99099.50;;;13.08;45.02
69879;BME280;57161;43.136;24.706;2023-02-22T05:45:33;99114.06;;;13.14;45.06
69879;BME280;57161;43.136;24.706;2023-02-22T05:48:00;99086.44;;;12.95;45.03
69879;BME280;57161;43.136;24.706;2023-02-22T05:50:26;99087.94;;;12.88;44.91
69879;BME280;57161;43.136;24.706;2023-02-22T05:52:52;99095.38;;;13.01;44.79
69879;BME280;57161;43.136;24.706;2023-02-22T05:55:20;99141.38;;;13.36;44.66
69879;BME280;57161;43.136;24.706;2023-02-22T05:57:46;99120.41;;;13.30;44.46
69879;BME280;57161;43.136;24.706;2023-02-22T06:00:20;99088.44;;;13.17;44.02
69879;BME280;57161;43.136;24.706;2023-02-22T06:03:00;99141.13;;;13.57;44.20
69879;BME280;57161;43.136;24.706;2023-02-22T06:05:26;99139.59;;;13.64;44.02
69879;BME280;57161;43.136;24.706;2023-02-22T06:07:52;99144.63;;;13.73;43.94
69879;BME280;57161;43.136;24.706;2023-02-22T06:10:18;99114.75;;;13.52;44.10
69879;BME280;57161;43.136;24.706;2023-02-22T06:12:45;99146.81;;;13.82;43.84
69879;BME280;57161;43.136;24.706;2023-02-22T06:15:10;99150.00;;;13.86;43.64
69879;BME280;57161;43.136;24.706;2023-02-22T06:17:36;99105.94;;;13.56;43.58
69879;BME280;57161;43.136;24.706;2023-02-22T06:20:02;99125.72;;;13.73;43.42
69879;BME280;57161;43.136;24.706;2023-02-22T06:22:27;99159.78;;;14.10;43.30
69879;BME280;57161;43.136;24.706;2023-02-22T06:24:53;99159.44;;;14.06;43.32
69879;BME280;57161;43.136;24.706;2023-02-22T06:27:18;99143.00;;;14.02;43.38
69879;BME280;57161;43.136;24.706;2023-02-22T06:29:45;99160.88;;;14.15;43.26
69879;BME280;57161;43.136;24.706;2023-02-22T06:32:12;99120.38;;;13.93;43.21
69879;BME280;57161;43.136;24.706;2023-02-22T06:34:37;99173.66;;;14.16;43.39
69879;BME280;57161;43.136;24.706;2023-02-22T06:37:06;99164.59;;;14.25;43.08
69879;BME280;57161;43.136;24.706;2023-02-22T06:39:32;99166.06;;;14.33;43.06
69879;BME280;57161;43.136;24.706;2023-02-22T06:41:58;99152.56;;;14.32;42.92
69879;BME280;57161;43.136;24.706;2023-02-22T06:44:24;99116.69;;;14.15;42.79
69879;BME280;57161;43.136;24.706;2023-02-22T06:46:50;99161.09;;;14.49;42.86
69879;BME280;57161;43.136;24.706;2023-02-22T06:49:16;99166.25;;;14.60;42.76
69879;BME280;57161;43.136;24.706;2023-02-22T06:51:42;99174.41;;;14.74;42.56
69879;BME280;57161;43.136;24.706;2023-02-22T06:54:08;99110.97;;;14.30;42.67
69879;BME280;57161;43.136;24.706;2023-02-22T06:56:34;99175.03;;;14.89;42.24
69879;BME280;57161;43.136;24.706;2023-02-22T06:58:59;99158.41;;;14.84;42.43
69879;BME280;57161;43.136;24.706;2023-02-22T07:01:26;99147.38;;;14.78;42.40
69879;BME280;57161;43.136;24.706;2023-02-22T07:03:52;99162.50;;;15.08;42.28
69879;BME280;57161;43.136;24.706;2023-02-22T07:06:18;99163.41;;;15.10;42.13
69879;BME280;57161;43.136;24.706;2023-02-22T07:08:44;99125.31;;;14.92;42.07
69879;BME280;57161;43.136;24.706;2023-02-22T07:11:09;99169.81;;;15.28;42.06
69879;BME280;57161;43.136;24.706;2023-02-22T07:13:35;99161.88;;;15.34;41.96
69879;BME280;57161;43.136;24.706;2023-02-22T07:16:00;99131.25;;;15.21;42.00
69879;BME280;57161;43.136;24.706;2023-02-22T07:18:26;99117.75;;;15.19;41.63
69879;BME280;57161;43.136;24.706;2023-02-22T07:20:52;99160.81;;;15.47;41.85
69879;BME280;57161;43.136;24.706;2023-02-22T07:23:19;99156.75;;;15.57;41.75
69879;BME280;57161;43.136;24.706;2023-02-22T07:25:44;99161.59;;;15.65;41.38
69879;BME280;57161;43.136;24.706;2023-02-22T07:28:10;99166.38;;;15.72;41.21
69879;BME280;57161;43.136;24.706;2023-02-22T07:30:36;99093.16;;;15.37;41.20
69879;BME280;57161;43.136;24.706;2023-02-22T07:33:05;99153.78;;;15.90;40.96
69879;BME280;57161;43.136;24.706;2023-02-22T07:35:33;99152.59;;;15.93;40.83
69879;BME280;57161;43.136;24.706;2023-02-22T07:38:01;99163.78;;;16.01;40.72
69879;BME280;57161;43.136;24.706;2023-02-22T07:40:27;99139.84;;;15.92;40.68
69879;BME280;57161;43.136;24.706;2023-02-22T07:43:01;99138.50;;;15.93;40.65
69879;BME280;57161;43.136;24.706;2023-02-22T07:45:28;99119.84;;;15.71;40.54
69879;BME280;57161;43.136;24.706;2023-02-22T07:47:54;99111.38;;;15.53;40.67
69879;BME280;57161;43.136;24.706;2023-02-22T07:50:22;99118.59;;;15.64;40.78
69879;BME280;57161;43.136;24.706;2023-02-22T07:52:49;99159.72;;;15.94;40.73
69879;BME280;57161;43.136;24.706;2023-02-22T07:55:17;99166.66;;;16.10;40.88
69879;BME280;57161;43.136;24.706;2023-02-22T07:57:47;99174.97;;;16.35;40.39
69879;BME280;57161;43.136;24.706;2023-02-22T08:00:15;99163.16;;;16.46;40.16
69879;BME280;57161;43.136;24.706;2023-02-22T08:02:45;99134.59;;;16.33;40.12
69879;BME280;57161;43.136;24.706;2023-02-22T08:05:10;99161.75;;;16.65;40.04
69879;BME280;57161;43.136;24.706;2023-02-22T08:07:37;99157.59;;;16.66;39.93
69879;BME280;57161;43.136;24.706;2023-02-22T08:10:03;99167.91;;;16.44;40.10
69879;BME280;57161;43.136;24.706;2023-02-22T08:12:32;99169.81;;;16.14;40.77
69879;BME280;57161;43.136;24.706;2023-02-22T08:14:57;99168.16;;;16.11;40.86
69879;BME280;57161;43.136;24.706;2023-02-22T08:17:23;99160.50;;;16.21;40.68
69879;BME280;57161;43.136;24.706;2023-02-22T08:19:48;99162.63;;;16.04;40.85
69879;BME280;57161;43.136;24.706;2023-02-22T08:22:14;99176.88;;;16.06;41.06
69879;BME280;57161;43.136;24.706;2023-02-22T08:24:40;99161.09;;;16.20;40.64
69879;BME280;57161;43.136;24.706;2023-02-22T08:27:06;99159.97;;;16.33;40.62
69879;BME280;57161;43.136;24.706;2023-02-22T08:29:31;99157.03;;;16.40;40.52
69879;BME280;57161;43.136;24.706;2023-02-22T08:32:01;99150.47;;;16.28;40.34
69879;BME280;57161;43.136;24.706;2023-02-22T08:34:27;99191.47;;;16.39;40.67
69879;BME280;57161;43.136;24.706;2023-02-22T08:36:53;99179.41;;;16.29;40.83
69879;BME280;57161;43.136;24.706;2023-02-22T08:39:19;99170.72;;;16.44;40.74
69879;BME280;57161;43.136;24.706;2023-02-22T08:41:44;99174.13;;;16.69;40.19
69879;BME280;57161;43.136;24.706;2023-02-22T08:44:10;99163.00;;;16.71;39.95
69879;BME280;57161;43.136;24.706;2023-02-22T08:46:35;99157.41;;;16.81;39.81
69879;BME280;57161;43.136;24.706;2023-02-22T08:49:01;99170.94;;;16.92;40.09
69879;BME280;57161;43.136;24.706;2023-02-22T08:51:27;99122.38;;;16.57;39.76
69879;BME280;57161;43.136;24.706;2023-02-22T08:53:53;99151.63;;;16.89;39.86
69879;BME280;57161;43.136;24.706;2023-02-22T08:56:19;99161.47;;;17.07;39.36
69879;BME280;57161;43.136;24.706;2023-02-22T08:58:44;99102.91;;;16.78;39.67
69879;BME280;57161;43.136;24.706;2023-02-22T09:01:10;99146.63;;;17.16;39.68
69879;BME280;57161;43.136;24.706;2023-02-22T09:03:35;99164.63;;;17.40;39.40
69879;BME280;57161;43.136;24.706;2023-02-22T09:06:03;99170.16;;;17.28;39.21
69879;BME280;57161;43.136;24.706;2023-02-22T09:08:29;99092.84;;;16.95;39.17
69879;BME280;57161;43.136;24.706;2023-02-22T09:10:54;99165.28;;;17.58;39.01
69879;BME280;57161;43.136;24.706;2023-02-22T09:13:20;99165.28;;;17.58;38.88
69879;BME280;57161;43.136;24.706;2023-02-22T09:15:45;99187.13;;;17.67;38.50
69879;BME280;57161;43.136;24.706;2023-02-22T09:18:15;99158.44;;;17.70;38.83
69879;BME280;57161;43.136;24.706;2023-02-22T09:20:42;99164.25;;;17.82;38.68
69879;BME280;57161;43.136;24.706;2023-02-22T09:23:08;99121.41;;;17.47;38.77
69879;BME280;57161;43.136;24.706;2023-02-22T09:25:34;99168.09;;;17.96;38.34
69879;BME280;57161;43.136;24.706;2023-02-22T09:28:00;99124.22;;;17.66;38.35
69879;BME280;57161;43.136;24.706;2023-02-22T09:30:31;99171.97;;;17.72;38.53
69879;BME280;57161;43.136;24.706;2023-02-22T09:33:06;99108.16;;;17.11;39.23
69879;BME280;57161;43.136;24.706;2023-02-22T09:35:34;99164.09;;;17.61;38.97
69879;BME280;57161;43.136;24.706;2023-02-22T09:38:01;99155.88;;;17.55;39.38
69879;BME280;57161;43.136;24.706;2023-02-22T09:40:31;99154.88;;;17.80;38.73
69879;BME280;57161;43.136;24.706;2023-02-22T09:43:20;99161.41;;;17.73;38.85
69879;BME280;57161;43.136;24.706;2023-02-22T09:46:12;99151.28;;;17.50;39.12
69879;BME280;57161;43.136;24.706;2023-02-22T09:52:07;99160.38;;;17.68;39.30
69879;BME280;57161;43.136;24.706;2023-02-22T09:54:39;99151.72;;;17.56;39.20
69879;BME280;57161;43.136;24.706;2023-02-22T09:57:12;99155.63;;;17.80;39.03
69879;BME280;57161;43.136;24.706;2023-02-22T09:59:58;99139.13;;;17.77;38.94
69879;BME280;57161;43.136;24.706;2023-02-22T10:05:03;99121.25;;;17.64;39.35
69879;BME280;57161;43.136;24.706;2023-02-22T10:07:36;99120.09;;;17.77;38.56
69879;BME280;57161;43.136;24.706;2023-02-22T10:10:04;99113.38;;;17.82;38.80
69879;BME280;57161;43.136;24.706;2023-02-22T10:15:38;99121.63;;;18.19;38.51
69879;BME280;57161;43.136;24.706;2023-02-22T10:21:08;99122.50;;;18.31;38.16
69879;BME280;57161;43.136;24.706;2023-02-22T10:26:42;99110.91;;;18.17;38.29
69879;BME280;57161;43.136;24.706;2023-02-22T10:32:02;99104.78;;;18.30;38.50
69879;BME280;57161;43.136;24.706;2023-02-22T10:34:37;99101.72;;;18.48;38.25
69879;BME280;57161;43.136;24.706;2023-02-22T10:39:42;99099.09;;;18.40;38.45
69879;BME280;57161;43.136;24.706;2023-02-22T10:42:08;99076.59;;;18.42;38.55
69879;BME280;57161;43.136;24.706;2023-02-22T10:44:35;99108.41;;;18.52;38.26
69879;BME280;57161;43.136;24.706;2023-02-22T10:47:04;99082.91;;;18.62;38.13
69879;BME280;57161;43.136;24.706;2023-02-22T10:49:57;99076.25;;;18.57;38.30
69879;BME280;57161;43.136;24.706;2023-02-22T10:52:28;99084.72;;;18.57;38.13
69879;BME280;57161;43.136;24.706;2023-02-22T10:54:57;99076.19;;;18.67;37.95
69879;BME280;57161;43.136;24.706;2023-02-22T10:57:36;99067.53;;;18.75;37.82
69879;BME280;57161;43.136;24.706;2023-02-22T11:00:19;99019.47;;;18.34;37.94
69879;BME280;57161;43.136;24.706;2023-02-22T11:02:57;99055.00;;;18.47;37.95
69879;BME280;57161;43.136;24.706;2023-02-22T11:05:36;99034.50;;;17.96;38.70
69879;BME280;57161;43.136;24.706;2023-02-22T11:10:51;99059.72;;;18.23;38.49
69879;BME280;57161;43.136;24.706;2023-02-22T11:13:31;99057.16;;;18.27;38.38
69879;BME280;57161;43.136;24.706;2023-02-22T11:18:41;99053.91;;;18.21;38.40
69879;BME280;57161;43.136;24.706;2023-02-22T11:21:08;99049.31;;;18.16;38.63
69879;BME280;57161;43.136;24.706;2023-02-22T11:23:37;99049.31;;;18.16;39.06
69879;BME280;57161;43.136;24.706;2023-02-22T11:26:12;99000.34;;;17.82;39.06
69879;BME280;57161;43.136;24.706;2023-02-22T11:28:44;99035.56;;;18.32;39.05
69879;BME280;57161;43.136;24.706;2023-02-22T11:31:17;99046.72;;;18.60;38.39
69879;BME280;57161;43.136;24.706;2023-02-22T11:33:51;99049.97;;;18.36;38.30
69879;BME280;57161;43.136;24.706;2023-02-22T11:36:40;99040.31;;;18.39;38.43
69879;BME280;57161;43.136;24.706;2023-02-22T11:41:45;99029.34;;;18.23;38.93
69879;BME280;57161;43.136;24.706;2023-02-22T11:44:28;99040.06;;;18.56;38.50
69879;BME280;57161;43.136;24.706;2023-02-22T11:46:56;99032.56;;;18.39;38.67
69879;BME280;57161;43.136;24.706;2023-02-22T11:49:36;99033.19;;;18.59;38.31
69879;BME280;57161;43.136;24.706;2023-02-22T12:08:31;99034.56;;;19.01;37.63
69879;BME280;57161;43.136;24.706;2023-02-22T12:21:25;99029.75;;;18.60;37.84
69879;BME280;57161;43.136;24.706;2023-02-22T12:24:09;99014.25;;;18.62;38.00
69879;BME280;57161;43.136;24.706;2023-02-22T12:26:44;98997.78;;;18.79;37.82
69879;BME280;57161;43.136;24.706;2023-02-22T12:32:16;99013.63;;;18.73;38.30
69879;BME280;57161;43.136;24.706;2023-02-22T12:35:02;99010.47;;;18.78;38.38
69879;BME280;57161;43.136;24.706;2023-02-22T12:37:51;99004.38;;;18.94;38.07
69879;BME280;57161;43.136;24.706;2023-02-22T12:40:19;98999.72;;;18.98;37.86
69879;BME280;57161;43.136;24.706;2023-02-22T12:43:11;98998.56;;;19.13;37.44
69879;BME280;57161;43.136;24.706;2023-02-22T12:45:49;98976.47;;;19.00;37.83
69879;BME280;57161;43.136;24.706;2023-02-22T12:48:36;99015.66;;;19.36;37.37
69879;BME280;57161;43.136;24.706;2023-02-22T12:51:18;99021.91;;;19.56;37.13
69879;BME280;57161;43.136;24.706;2023-02-22T12:53:59;99008.19;;;19.53;36.84
69879;BME280;57161;43.136;24.706;2023-02-22T12:56:50;99019.19;;;19.58;36.97
69879;BME280;57161;43.136;24.706;2023-02-22T12:59:35;99017.59;;;19.55;37.02
69879;BME280;57161;43.136;24.706;2023-02-22T13:02:11;99008.34;;;19.00;37.84
69879;BME280;57161;43.136;24.706;2023-02-22T13:04:40;99005.72;;;19.14;37.67
69879;BME280;57161;43.136;24.706;2023-02-22T13:07:20;99012.78;;;19.03;37.72
69879;BME280;57161;43.136;24.706;2023-02-22T13:15:14;99014.56;;;18.66;38.05
69879;BME280;57161;43.136;24.706;2023-02-22T13:20:35;99005.59;;;18.69;38.12
69879;BME280;57161;43.136;24.706;2023-02-22T13:23:30;99007.13;;;18.60;38.40
69879;BME280;57161;43.136;24.706;2023-02-22T13:26:09;99001.91;;;18.88;38.22
69879;BME280;57161;43.136;24.706;2023-02-22T13:29:11;99015.50;;;18.80;38.60
69879;BME280;57161;43.136;24.706;2023-02-22T13:32:01;98976.41;;;18.45;38.94
69879;BME280;57161;43.136;24.706;2023-02-22T13:37:52;98978.00;;;18.48;38.67
69879;BME280;57161;43.136;24.706;2023-02-22T13:45:53;99004.66;;;18.98;37.87
69879;BME280;57161;43.136;24.706;2023-02-22T13:53:22;98997.06;;;18.48;39.20
69879;BME280;57161;43.136;24.706;2023-02-22T13:55:53;99005.56;;;18.48;39.28
69879;BME280;57161;43.136;24.706;2023-02-22T13:58:21;98982.47;;;18.20;39.40
69879;BME280;57161;43.136;24.706;2023-02-22T14:00:51;99002.97;;;18.30;39.43
69879;BME280;57161;43.136;24.706;2023-02-22T14:03:39;98960.28;;;17.95;39.62
69879;BME280;57161;43.136;24.706;2023-02-22T14:06:38;99003.53;;;18.39;39.41
69879;BME280;57161;43.136;24.706;2023-02-22T14:09:40;99010.22;;;18.43;39.42
69879;BME280;57161;43.136;24.706;2023-02-22T14:12:02;98958.22;;;17.86;39.80
69879;BME280;57161;43.136;24.706;2023-02-22T14:14:27;98959.16;;;17.79;39.65
69879;BME280;57161;43.136;24.706;2023-02-22T14:19:41;98985.47;;;17.82;40.26
69879;BME280;57161;43.136;24.706;2023-02-22T14:22:07;99004.03;;;17.94;40.29
69879;BME280;57161;43.136;24.706;2023-02-22T14:24:45;98999.97;;;18.07;40.21
69879;BME280;57161;43.136;24.706;2023-02-22T14:27:13;99009.19;;;18.08;40.39
69879;BME280;57161;43.136;24.706;2023-02-22T14:29:53;99012.66;;;17.96;39.95
69879;BME280;57161;43.136;24.706;2023-02-22T14:32:29;98990.16;;;17.98;39.76
69879;BME280;57161;43.136;24.706;2023-02-22T14:35:02;98984.25;;;17.94;40.18
69879;BME280;57161;43.136;24.706;2023-02-22T14:37:32;99002.75;;;18.17;40.20
69879;BME280;57161;43.136;24.706;2023-02-22T14:40:09;99002.22;;;17.99;40.85
69879;BME280;57161;43.136;24.706;2023-02-22T14:42:47;98985.19;;;17.78;40.73
69879;BME280;57161;43.136;24.706;2023-02-22T14:47:55;99000.81;;;17.79;40.54
69879;BME280;57161;43.136;24.706;2023-02-22T14:56:03;99000.19;;;17.80;40.61
69879;BME280;57161;43.136;24.706;2023-02-22T14:58:40;98988.94;;;17.61;40.77
69879;BME280;57161;43.136;24.706;2023-02-22T15:01:36;98989.41;;;17.48;40.89
69879;BME280;57161;43.136;24.706;2023-02-22T15:04:22;98996.06;;;17.52;40.95
69879;BME280;57161;43.136;24.706;2023-02-22T15:06:48;98946.03;;;17.24;40.95
69879;BME280;57161;43.136;24.706;2023-02-22T15:14:36;98975.47;;;17.21;41.47